Time;durP1;ratioP1;P1;durP2;ratioP2;P2;SDS_P1;SDS_P2;PMS_P1;PMS_P2;Temp;Humidity;BMP_temperature;BMP_pressure;BME280_temperature;BME280_humidity;BME280_pressure;Samples;Min_cycle;Max_cycle;Signal;HPM_P1;HPM_P2
2024/02/25 00:01:16;;;;;;;7.10;3.30;;;5.20;99.90;;;;;;5044006;28;20064;-79
2024/02/25 00:03:42;;;;;;;6.22;3.25;;;5.20;99.90;;;;;;5059043;28;20407;-79
2024/02/25 00:06:09;;;;;;;6.55;3.03;;;5.20;99.90;;;;;;5050950;28;20041;-79
2024/02/25 00:08:34;;;;;;;6.68;3.25;;;5.20;99.90;;;;;;5050594;28;20426;-80
2024/02/25 00:11:00;;;;;;;6.38;3.10;;;5.10;99.90;;;;;;5034287;28;20041;-80
2024/02/25 00:13:26;;;;;;;8.35;3.22;;;5.10;99.90;;;;;;5031004;28;20044;-79
2024/02/25 00:15:52;;;;;;;5.63;2.63;;;5.10;99.90;;;;;;5052649;28;20033;-81
2024/02/25 00:18:18;;;;;;;5.88;2.92;;;5.10;99.90;;;;;;5039351;28;20402;-79
2024/02/25 00:20:44;;;;;;;6.32;2.83;;;5.20;99.90;;;;;;5036804;28;20139;-79
2024/02/25 00:23:10;;;;;;;7.63;3.05;;;5.10;99.90;;;;;;5050564;28;20041;-79
2024/02/25 00:25:36;;;;;;;8.63;2.83;;;5.10;99.90;;;;;;5051136;28;20040;-79
2024/02/25 00:28:02;;;;;;;6.75;3.17;;;5.10;99.90;;;;;;5056897;28;20036;-79
2024/02/25 00:30:28;;;;;;;4.78;2.92;;;5.10;99.90;;;;;;5060094;28;20029;-79
2024/02/25 00:32:54;;;;;;;7.40;2.72;;;5.10;99.90;;;;;;5042148;28;20040;-79
2024/02/25 00:35:20;;;;;;;6.35;2.80;;;5.10;99.90;;;;;;5047246;28;20123;-78
2024/02/25 00:37:46;;;;;;;8.48;2.83;;;5.10;99.90;;;;;;5062887;28;20070;-79
2024/02/25 00:40:13;;;;;;;10.32;2.67;;;5.10;99.90;;;;;;5045642;28;20060;-78
2024/02/25 00:42:39;;;;;;;6.63;2.80;;;5.10;99.90;;;;;;5063000;28;20542;-79
2024/02/25 00:45:05;;;;;;;5.35;2.60;;;5.10;99.90;;;;;;5054445;28;20040;-80
2024/02/25 00:47:31;;;;;;;10.57;2.60;;;5.10;99.90;;;;;;5068344;28;20036;-79
2024/02/25 00:49:57;;;;;;;4.88;2.35;;;5.10;99.90;;;;;;5050743;28;20037;-79
2024/02/25 00:52:26;;;;;;;8.77;3.05;;;5.20;99.90;;;;;;5068400;28;20038;-80
2024/02/25 00:54:52;;;;;;;7.57;2.80;;;5.10;99.90;;;;;;5073920;28;20032;-79
2024/02/25 00:57:18;;;;;;;7.97;2.40;;;5.20;99.90;;;;;;5056653;28;20043;-79
2024/02/25 00:59:44;;;;;;;4.88;2.70;;;5.20;99.90;;;;;;5063765;28;20039;-79
2024/02/25 01:02:10;;;;;;;10.30;2.90;;;5.20;99.90;;;;;;5040819;28;20301;-79
2024/02/25 01:04:36;;;;;;;5.38;2.70;;;5.20;99.90;;;;;;5041383;28;20036;-80
2024/02/25 01:07:01;;;;;;;5.72;2.70;;;5.20;99.90;;;;;;5061949;28;20052;-79
2024/02/25 01:09:27;;;;;;;6.13;2.90;;;5.20;99.90;;;;;;5072405;28;20032;-79
2024/02/25 01:11:53;;;;;;;8.27;3.33;;;5.20;99.90;;;;;;5064066;28;20102;-79
2024/02/25 01:14:20;;;;;;;7.53;3.10;;;5.20;99.90;;;;;;5045741;28;20038;-78
2024/02/25 01:16:47;;;;;;;10.75;2.90;;;5.20;99.90;;;;;;5077912;28;20062;-79
2024/02/25 01:19:14;;;;;;;5.03;3.03;;;5.20;99.90;;;;;;5065009;28;20044;-79
2024/02/25 01:21:40;;;;;;;5.78;3.50;;;5.20;99.90;;;;;;5042692;28;20040;-79
2024/02/25 01:24:06;;;;;;;8.90;3.33;;;5.20;99.90;;;;;;5053785;28;20526;-79
2024/02/25 01:26:37;;;;;;;7.35;3.28;;;5.20;99.90;;;;;;5070659;28;20087;-79
2024/02/25 01:29:04;;;;;;;8.55;3.35;;;5.20;99.90;;;;;;5075600;28;20381;-79
2024/02/25 01:31:30;;;;;;;8.27;3.70;;;5.20;99.90;;;;;;5038365;28;20098;-79
2024/02/25 01:33:55;;;;;;;6.70;3.83;;;5.20;99.90;;;;;;5030410;28;20395;-79
2024/02/25 01:36:21;;;;;;;6.93;3.28;;;5.20;99.90;;;;;;5072508;28;20044;-79
2024/02/25 01:38:47;;;;;;;5.78;3.35;;;5.20;99.90;;;;;;5049198;28;20028;-78
2024/02/25 01:41:12;;;;;;;7.57;3.22;;;5.20;99.90;;;;;;5085870;28;20040;-79
2024/02/25 01:43:40;;;;;;;7.15;3.50;;;5.20;99.90;;;;;;5049802;28;20032;-78
2024/02/25 01:46:07;;;;;;;7.35;3.33;;;5.20;99.90;;;;;;5060333;28;20036;-78
2024/02/25 01:48:37;;;;;;;8.88;3.40;;;5.20;99.90;;;;;;5047840;28;20031;-79
2024/02/25 01:51:03;;;;;;;7.45;3.38;;;5.20;99.90;;;;;;5040460;28;20042;-79
2024/02/25 01:53:29;;;;;;;7.38;3.10;;;5.20;99.90;;;;;;5074667;28;20509;-79
2024/02/25 01:55:57;;;;;;;8.27;3.53;;;5.20;99.90;;;;;;5033483;28;20483;-79
2024/02/25 01:58:23;;;;;;;8.43;3.38;;;5.20;99.90;;;;;;5053681;28;20036;-79
2024/02/25 02:00:49;;;;;;;8.27;3.50;;;5.20;99.90;;;;;;5051307;28;20051;-78
2024/02/25 02:03:18;;;;;;;6.05;3.22;;;5.20;99.90;;;;;;5068635;28;20036;-78
2024/02/25 02:05:44;;;;;;;7.25;3.40;;;5.20;99.90;;;;;;5071690;28;20044;-78
2024/02/25 02:08:10;;;;;;;7.60;3.22;;;5.20;99.90;;;;;;5071263;28;20402;-78
2024/02/25 02:10:35;;;;;;;9.07;3.35;;;5.30;99.90;;;;;;5055594;28;20028;-77
2024/02/25 02:13:01;;;;;;;9.68;3.53;;;5.30;99.90;;;;;;5076813;28;20518;-78
2024/02/25 02:15:27;;;;;;;11.13;3.55;;;5.30;99.90;;;;;;5098327;28;20036;-78
2024/02/25 02:17:53;;;;;;;6.22;3.50;;;5.30;99.90;;;;;;5091112;28;20455;-78
2024/02/25 02:20:18;;;;;;;6.68;3.45;;;5.30;99.90;;;;;;5060343;28;20115;-78
2024/02/25 02:22:45;;;;;;;8.20;4.00;;;5.30;99.90;;;;;;5065227;28;20072;-78
2024/02/25 02:25:12;;;;;;;8.10;3.72;;;5.30;99.90;;;;;;5075722;28;20052;-78
2024/02/25 02:27:41;;;;;;;7.50;3.40;;;5.30;99.90;;;;;;5084548;28;20420;-78
2024/02/25 02:30:08;;;;;;;6.70;3.58;;;5.30;99.90;;;;;;5039698;28;20033;-78
2024/02/25 02:32:34;;;;;;;6.63;3.50;;;5.30;99.90;;;;;;5058129;28;20033;-78
2024/02/25 02:35:00;;;;;;;7.35;3.35;;;5.30;99.90;;;;;;5040650;28;20112;-78
2024/02/25 02:37:25;;;;;;;6.63;3.45;;;5.30;99.90;;;;;;5075771;28;20052;-78
2024/02/25 02:39:51;;;;;;;6.22;3.30;;;5.30;99.90;;;;;;5041328;28;20044;-77
2024/02/25 02:42:16;;;;;;;6.55;3.17;;;5.30;99.90;;;;;;5061460;28;20368;-78
2024/02/25 02:44:45;;;;;;;7.07;3.40;;;5.30;99.90;;;;;;5039466;28;20040;-78
2024/02/25 02:47:21;;;;;;;6.55;3.60;;;5.30;99.90;;;;;;5058952;28;20581;-78
2024/02/25 02:49:47;;;;;;;9.57;4.07;;;5.30;99.90;;;;;;5066649;28;20047;-78
2024/02/25 02:52:14;;;;;;;10.88;4.00;;;5.30;99.90;;;;;;5053181;28;20073;-78
2024/02/25 02:54:40;;;;;;;7.15;3.78;;;5.30;99.90;;;;;;5048863;28;20029;-78
2024/02/25 02:57:05;;;;;;;11.57;3.40;;;5.30;99.90;;;;;;5058505;28;20040;-78
2024/02/25 02:59:33;;;;;;;7.93;3.80;;;5.30;99.90;;;;;;5064481;28;20032;-78
2024/02/25 03:01:59;;;;;;;6.75;3.67;;;5.30;99.90;;;;;;5065474;28;20072;-78
2024/02/25 03:04:26;;;;;;;6.25;3.70;;;5.30;99.90;;;;;;5042739;28;20044;-78
2024/02/25 03:06:52;;;;;;;7.72;4.03;;;5.30;99.90;;;;;;5059691;28;20039;-78
2024/02/25 03:09:17;;;;;;;9.75;3.97;;;5.30;99.90;;;;;;5050437;28;20045;-78
2024/02/25 03:11:43;;;;;;;9.73;4.13;;;5.20;99.90;;;;;;5049025;28;20077;-78
2024/02/25 03:14:08;;;;;;;7.32;3.97;;;5.30;99.90;;;;;;5059553;28;20044;-78
2024/02/25 03:16:37;;;;;;;8.98;3.97;;;5.30;99.90;;;;;;5072004;28;20123;-78
2024/02/25 03:19:03;;;;;;;9.43;4.40;;;5.20;99.90;;;;;;5041488;28;20063;-78
2024/02/25 03:21:29;;;;;;;8.23;3.90;;;5.20;99.90;;;;;;5058447;28;20072;-78
2024/02/25 03:23:54;;;;;;;5.78;3.80;;;5.30;99.90;;;;;;5056638;28;20068;-78
2024/02/25 03:26:20;;;;;;;8.35;3.85;;;5.30;99.90;;;;;;5048882;28;20041;-78
2024/02/25 03:28:47;;;;;;;8.07;4.10;;;5.20;99.90;;;;;;5060245;28;20039;-78
2024/02/25 03:31:12;;;;;;;8.77;3.88;;;5.20;99.90;;;;;;5051106;28;20502;-78
2024/02/25 03:33:39;;;;;;;8.55;3.90;;;5.30;99.90;;;;;;5064586;28;20040;-78
2024/02/25 03:36:05;;;;;;;7.28;3.65;;;5.20;99.90;;;;;;5053733;28;20087;-78
2024/02/25 03:38:31;;;;;;;6.38;4.03;;;5.30;99.90;;;;;;5066179;28;20072;-78
2024/02/25 03:40:56;;;;;;;6.63;3.90;;;5.30;99.90;;;;;;5066925;28;20047;-78
2024/02/25 03:43:22;;;;;;;8.63;3.92;;;5.30;99.90;;;;;;5061689;28;20047;-78
2024/02/25 03:45:48;;;;;;;8.82;4.22;;;5.30;99.90;;;;;;5058253;28;20037;-78
2024/02/25 03:48:14;;;;;;;5.90;3.63;;;5.30;99.90;;;;;;5058723;28;20041;-78
2024/02/25 03:50:39;;;;;;;11.73;4.72;;;5.40;99.90;;;;;;5046158;28;20059;-78
2024/02/25 03:53:05;;;;;;;7.00;4.35;;;5.20;99.90;;;;;;5057221;28;20036;-78
2024/02/25 03:55:31;;;;;;;8.55;4.45;;;5.20;99.90;;;;;;5075242;22;20041;-79
2024/02/25 03:57:57;;;;;;;7.72;4.30;;;5.20;99.90;;;;;;5025763;28;20120;-81
2024/02/25 04:00:23;;;;;;;9.38;4.40;;;5.30;99.90;;;;;;5065037;28;20045;-82
2024/02/25 04:02:49;;;;;;;6.72;4.57;;;5.20;99.90;;;;;;5033767;28;20115;-80
2024/02/25 04:05:16;;;;;;;10.93;4.70;;;5.20;99.90;;;;;;4999013;28;20135;-81
2024/02/25 04:07:42;;;;;;;9.27;4.80;;;5.20;99.90;;;;;;5010030;28;20080;-79
2024/02/25 04:10:09;;;;;;;8.57;4.80;;;5.20;99.90;;;;;;5008807;28;20040;-79
2024/02/25 04:12:36;;;;;;;7.25;4.35;;;5.20;99.90;;;;;;5024822;28;20041;-80
2024/02/25 04:15:01;;;;;;;7.40;4.55;;;5.20;99.90;;;;;;5009037;28;20052;-79
2024/02/25 04:17:29;;;;;;;7.60;4.75;;;5.20;99.90;;;;;;5043360;28;20476;-80
2024/02/25 04:19:56;;;;;;;6.43;4.22;;;5.20;99.90;;;;;;5027340;28;20041;-79
2024/02/25 04:22:24;;;;;;;11.25;5.05;;;5.20;99.90;;;;;;5022092;28;20116;-81
2024/02/25 04:24:53;;;;;;;7.43;4.57;;;5.20;99.90;;;;;;5032128;28;20049;-80
2024/02/25 04:27:19;;;;;;;8.45;4.72;;;4.70;99.90;;;;;;5025217;28;20037;-79
2024/02/25 04:29:45;;;;;;;7.00;4.90;;;5.20;99.90;;;;;;5050666;28;20108;-79
2024/02/25 04:32:12;;;;;;;8.25;4.70;;;5.20;99.90;;;;;;5045092;28;20112;-79
2024/02/25 04:34:37;;;;;;;9.55;5.15;;;5.20;99.90;;;;;;5040331;28;20052;-79
2024/02/25 04:37:04;;;;;;;7.60;4.63;;;5.20;99.90;;;;;;5028197;28;20033;-79
2024/02/25 04:39:30;;;;;;;8.60;4.90;;;5.20;99.90;;;;;;5025449;28;20045;-82
2024/02/25 04:41:56;;;;;;;6.63;4.78;;;5.20;99.90;;;;;;5047541;28;20098;-79
2024/02/25 04:44:22;;;;;;;9.00;4.82;;;5.30;99.90;;;;;;5044073;28;20120;-79
2024/02/25 04:46:47;;;;;;;6.35;4.28;;;5.30;99.90;;;;;;5043631;28;20120;-79
2024/02/25 04:49:15;;;;;;;7.30;4.55;;;5.30;99.90;;;;;;5024175;28;20033;-79
2024/02/25 04:51:41;;;;;;;6.65;4.40;;;5.30;99.90;;;;;;5027612;28;20051;-80
2024/02/25 04:54:07;;;;;;;9.13;4.20;;;5.60;99.90;;;;;;5042716;28;20037;-79
2024/02/25 04:56:33;;;;;;;10.55;4.78;;;5.30;99.90;;;;;;5043334;28;20048;-79
2024/02/25 04:58:59;;;;;;;7.05;4.03;;;5.30;99.90;;;;;;5048385;28;20044;-79
2024/02/25 05:01:25;;;;;;;8.25;4.35;;;5.30;99.90;;;;;;5038243;28;20407;-81
2024/02/25 05:03:50;;;;;;;9.40;4.22;;;5.30;99.90;;;;;;5047567;28;20044;-82
2024/02/25 05:06:16;;;;;;;6.72;3.72;;;5.30;99.90;;;;;;5042534;28;20542;-79
2024/02/25 05:08:41;;;;;;;10.18;4.50;;;5.30;99.90;;;;;;5042924;28;20041;-82
2024/02/25 05:11:07;;;;;;;8.38;3.95;;;5.30;99.90;;;;;;5034290;28;20116;-79
2024/02/25 05:13:33;;;;;;;9.23;4.18;;;5.30;99.90;;;;;;5040363;28;20166;-81
2024/02/25 05:15:58;;;;;;;7.75;3.97;;;5.30;99.90;;;;;;5030521;28;20030;-79
2024/02/25 05:18:27;;;;;;;7.00;4.25;;;5.30;99.90;;;;;;5047311;28;20090;-79
2024/02/25 05:20:53;;;;;;;6.70;4.03;;;5.30;99.90;;;;;;5040935;28;20050;-79
2024/02/25 05:23:18;;;;;;;8.43;3.88;;;5.30;99.90;;;;;;5040707;28;20048;-79
2024/02/25 05:25:44;;;;;;;7.47;3.67;;;5.30;99.90;;;;;;5050557;28;20037;-79
2024/02/25 05:28:09;;;;;;;6.68;3.72;;;5.30;99.90;;;;;;5056652;28;20045;-79
2024/02/25 05:30:35;;;;;;;6.35;3.60;;;5.30;99.90;;;;;;5044983;28;20399;-79
2024/02/25 05:33:01;;;;;;;6.82;3.50;;;5.30;99.90;;;;;;5047649;28;20045;-79
2024/02/25 05:35:26;;;;;;;7.75;3.78;;;5.40;99.90;;;;;;5049171;28;20029;-79
2024/02/25 05:37:52;;;;;;;10.68;3.60;;;6.10;99.90;;;;;;5026884;28;20507;-83
2024/02/25 05:40:17;;;;;;;8.23;3.88;;;5.30;99.90;;;;;;5058562;28;20049;-79
2024/02/25 05:42:43;;;;;;;6.82;3.70;;;5.30;99.90;;;;;;5052650;28;20041;-79
2024/02/25 05:45:11;;;;;;;7.80;3.70;;;5.30;99.90;;;;;;5034418;28;20045;-79
2024/02/25 05:47:37;;;;;;;7.18;3.33;;;5.40;99.90;;;;;;5043391;28;20064;-79
2024/02/25 05:50:03;;;;;;;6.32;3.38;;;5.40;99.90;;;;;;5050795;28;20026;-79
2024/02/25 05:52:28;;;;;;;7.43;3.47;;;5.40;99.90;;;;;;5056244;28;20044;-79
2024/02/25 05:54:56;;;;;;;8.90;3.65;;;5.40;99.90;;;;;;5049525;28;20038;-79
2024/02/25 05:57:22;;;;;;;5.72;3.30;;;5.40;99.90;;;;;;5046585;28;20037;-80
2024/02/25 05:59:47;;;;;;;6.72;3.30;;;5.40;99.90;;;;;;5048004;28;20410;-79
2024/02/25 06:02:13;;;;;;;6.68;3.25;;;5.40;99.90;;;;;;5045289;28;20040;-79
2024/02/25 06:04:39;;;;;;;7.95;3.15;;;5.40;99.90;;;;;;5053748;28;20257;-79
2024/02/25 06:07:05;;;;;;;5.97;3.30;;;5.40;99.90;;;;;;5043609;28;20057;-79
2024/02/25 06:09:30;;;;;;;4.80;3.15;;;5.40;99.90;;;;;;5055357;28;20037;-79
2024/02/25 06:11:56;;;;;;;5.90;2.95;;;5.50;99.90;;;;;;5048373;28;20542;-79
2024/02/25 06:14:21;;;;;;;5.60;2.90;;;5.40;99.90;;;;;;5045530;28;20494;-79
2024/02/25 06:16:47;;;;;;;6.10;3.25;;;5.40;99.90;;;;;;5043582;28;20437;-79
2024/02/25 06:19:13;;;;;;;8.13;3.05;;;5.40;99.90;;;;;;5036651;28;20076;-79
2024/02/25 06:21:45;;;;;;;5.15;3.30;;;5.40;99.90;;;;;;5050725;28;20132;-79
2024/02/25 06:24:10;;;;;;;5.43;3.05;;;5.40;99.90;;;;;;5046333;28;20049;-79
2024/02/25 06:26:36;;;;;;;5.05;2.78;;;5.40;99.90;;;;;;5042802;28;20067;-79
2024/02/25 06:29:03;;;;;;;4.35;2.80;;;5.40;99.90;;;;;;5048466;28;20105;-79
2024/02/25 06:31:32;;;;;;;5.28;3.08;;;5.40;99.90;;;;;;5051806;28;20041;-79
2024/02/25 06:33:58;;;;;;;6.68;2.72;;;5.40;99.90;;;;;;5039266;28;20117;-79
2024/02/25 06:36:26;;;;;;;5.40;3.17;;;5.40;99.90;;;;;;5042477;28;20052;-79
2024/02/25 06:38:52;;;;;;;5.97;3.10;;;5.40;99.90;;;;;;5046620;28;20479;-79
2024/02/25 06:41:23;;;;;;;4.95;2.90;;;5.60;99.90;;;;;;5021031;28;20040;-79
2024/02/25 06:43:54;;;;;;;5.03;3.08;;;5.40;99.90;;;;;;5051012;28;20037;-79
2024/02/25 06:46:20;;;;;;;4.43;2.90;;;5.40;99.90;;;;;;5054849;28;20041;-79
2024/02/25 06:48:47;;;;;;;6.68;3.20;;;5.40;99.90;;;;;;5036208;28;20034;-79
2024/02/25 06:51:22;;;;;;;5.72;2.90;;;5.40;99.90;;;;;;5047187;28;20105;-79
2024/02/25 06:53:48;;;;;;;4.93;2.88;;;5.40;99.90;;;;;;5052424;28;20033;-79
2024/02/25 06:56:17;;;;;;;5.10;3.10;;;5.50;99.90;;;;;;5048478;28;20033;-79
2024/02/25 06:58:43;;;;;;;6.15;3.10;;;5.40;99.90;;;;;;5051126;28;20040;-79
2024/02/25 07:01:09;;;;;;;4.43;3.20;;;5.80;99.90;;;;;;5046585;28;20421;-79
2024/02/25 07:03:35;;;;;;;7.68;2.95;;;5.40;99.90;;;;;;5036149;28;20116;-79
2024/02/25 07:06:00;;;;;;;5.43;3.10;;;5.70;99.90;;;;;;5038383;28;20042;-79
2024/02/25 07:08:26;;;;;;;5.47;3.20;;;5.40;99.90;;;;;;5028107;28;20067;-79
2024/02/25 07:10:52;;;;;;;6.97;3.10;;;5.40;99.90;;;;;;5039382;28;20044;-79
2024/02/25 07:13:18;;;;;;;6.07;3.03;;;5.40;99.90;;;;;;5048681;28;20072;-79
2024/02/25 07:15:44;;;;;;;7.60;3.25;;;5.40;99.90;;;;;;5040719;28;20041;-79
2024/02/25 07:18:09;;;;;;;4.78;3.13;;;5.40;99.90;;;;;;5039905;28;20065;-80
2024/02/25 07:20:35;;;;;;;4.53;3.10;;;5.40;99.90;;;;;;5043065;28;20037;-79
2024/02/25 07:23:01;;;;;;;4.97;3.15;;;5.40;99.90;;;;;;5052359;28;20422;-79
2024/02/25 07:25:26;;;;;;;8.35;3.40;;;5.40;99.90;;;;;;5049862;28;20047;-79
2024/02/25 07:27:52;;;;;;;4.70;3.30;;;5.50;99.90;;;;;;5050761;28;20082;-79
2024/02/25 07:30:19;;;;;;;6.28;3.85;;;5.50;99.90;;;;;;5032303;28;20112;-79
2024/02/25 07:32:45;;;;;;;5.40;3.55;;;5.50;99.90;;;;;;5034807;28;20450;-79
2024/02/25 07:35:11;;;;;;;5.00;3.40;;;5.40;99.90;;;;;;5036047;28;20037;-79
2024/02/25 07:37:36;;;;;;;5.13;3.17;;;5.50;99.90;;;;;;5027413;28;20121;-79
2024/02/25 07:40:04;;;;;;;5.03;3.28;;;5.50;99.90;;;;;;5035473;28;20072;-79
2024/02/25 07:42:30;;;;;;;5.90;3.30;;;5.50;99.90;;;;;;5047119;28;20053;-79
2024/02/25 07:44:55;;;;;;;10.07;3.58;;;5.50;99.90;;;;;;5040503;28;20116;-80
2024/02/25 07:47:21;;;;;;;7.28;3.25;;;5.50;99.90;;;;;;5049851;28;20112;-79
2024/02/25 07:49:48;;;;;;;7.18;3.67;;;5.50;99.90;;;;;;5039363;28;20519;-79
2024/02/25 07:52:13;;;;;;;6.35;3.30;;;5.50;99.90;;;;;;5038571;28;20045;-79
2024/02/25 07:54:39;;;;;;;6.60;3.55;;;5.60;99.90;;;;;;5049995;28;20423;-79
2024/02/25 07:57:05;;;;;;;6.53;3.60;;;5.70;99.90;;;;;;5035984;28;20413;-80
2024/02/25 07:59:30;;;;;;;6.82;3.30;;;5.60;99.90;;;;;;5044605;28;20045;-80
2024/02/25 08:01:56;;;;;;;4.88;3.25;;;5.60;99.90;;;;;;5026294;28;20041;-80
2024/02/25 08:04:23;;;;;;;6.43;3.65;;;5.70;99.90;;;;;;5027459;28;20047;-80
2024/02/25 08:06:48;;;;;;;7.30;3.75;;;5.70;99.90;;;;;;5033824;28;20060;-80
2024/02/25 08:09:14;;;;;;;6.18;3.72;;;5.80;99.90;;;;;;5039638;28;20029;-80
2024/02/25 08:11:40;;;;;;;6.00;3.88;;;5.80;99.90;;;;;;5041319;28;20475;-80
2024/02/25 08:14:06;;;;;;;8.23;4.15;;;5.80;99.90;;;;;;5057677;28;20143;-80
2024/02/25 08:16:32;;;;;;;6.72;4.10;;;5.90;99.90;;;;;;5052344;28;20491;-81
2024/02/25 08:18:58;;;;;;;5.70;4.05;;;5.90;99.90;;;;;;5045834;28;20044;-79
2024/02/25 08:21:24;;;;;;;6.50;4.10;;;5.90;99.90;;;;;;5049155;28;20506;-80
2024/02/25 08:23:51;;;;;;;6.13;4.25;;;6.30;99.90;;;;;;5043229;28;20061;-80
2024/02/25 08:26:17;;;;;;;7.28;4.10;;;5.90;99.90;;;;;;5054457;28;20112;-80
2024/02/25 08:28:43;;;;;;;6.32;4.03;;;6.00;99.90;;;;;;5047408;28;20518;-80
2024/02/25 08:31:08;;;;;;;7.70;4.13;;;6.00;99.90;;;;;;5054079;28;20112;-80
2024/02/25 08:33:35;;;;;;;7.13;4.25;;;6.00;99.90;;;;;;5050549;28;20052;-80
2024/02/25 08:36:01;;;;;;;6.82;3.88;;;6.10;99.90;;;;;;5033199;28;20496;-79
2024/02/25 08:38:26;;;;;;;5.97;4.43;;;6.10;99.90;;;;;;5047946;28;20117;-80
2024/02/25 08:40:52;;;;;;;6.30;4.57;;;6.10;99.90;;;;;;5051039;28;20052;-79
2024/02/25 08:43:18;;;;;;;7.13;4.50;;;6.10;99.90;;;;;;5040902;28;20120;-79
2024/02/25 08:45:43;;;;;;;6.18;4.20;;;6.40;99.90;;;;;;5047752;28;20069;-79
2024/02/25 08:48:09;;;;;;;7.93;4.63;;;6.10;99.90;;;;;;5035374;28;20370;-79
2024/02/25 08:50:35;;;;;;;8.77;4.78;;;6.30;99.90;;;;;;5044380;28;20033;-81
2024/02/25 08:53:00;;;;;;;7.07;4.72;;;6.20;99.90;;;;;;5033401;28;20423;-80
2024/02/25 08:55:26;;;;;;;8.40;4.45;;;6.80;99.90;;;;;;5039294;28;20677;-79
2024/02/25 08:57:51;;;;;;;6.68;4.70;;;6.30;99.90;;;;;;5050890;28;20143;-79
2024/02/25 09:00:17;;;;;;;7.55;4.82;;;6.40;99.90;;;;;;5046987;28;20078;-81
2024/02/25 09:02:43;;;;;;;7.80;5.43;;;6.30;99.90;;;;;;5048815;28;20414;-82
2024/02/25 09:05:08;;;;;;;8.68;5.38;;;7.00;99.90;;;;;;5046614;28;20112;-79
2024/02/25 09:07:37;;;;;;;8.75;5.32;;;6.30;99.90;;;;;;5046913;28;20068;-79
2024/02/25 09:10:05;;;;;;;8.82;5.68;;;6.40;99.90;;;;;;5045040;28;20088;-80
2024/02/25 09:12:33;;;;;;;8.80;6.03;;;6.40;99.90;;;;;;5044944;28;20047;-79
2024/02/25 09:14:58;;;;;;;8.65;5.57;;;6.40;99.90;;;;;;5033444;28;20028;-79
2024/02/25 09:17:24;;;;;;;12.15;6.18;;;6.40;99.90;;;;;;5026901;28;20539;-79
2024/02/25 09:19:50;;;;;;;9.18;5.63;;;6.40;99.90;;;;;;5046292;28;20043;-79
2024/02/25 09:22:16;;;;;;;8.15;5.75;;;6.40;99.90;;;;;;5045256;28;20099;-79
2024/02/25 09:24:44;;;;;;;8.23;5.68;;;6.40;99.90;;;;;;5047620;28;20041;-79
2024/02/25 09:27:10;;;;;;;9.20;5.85;;;6.50;99.90;;;;;;5031057;28;20091;-80
2024/02/25 09:29:42;;;;;;;9.48;6.10;;;6.50;99.90;;;;;;5033813;28;20072;-79
2024/02/25 09:32:09;;;;;;;9.45;6.10;;;6.80;99.90;;;;;;5037239;28;20464;-80
2024/02/25 09:34:41;;;;;;;9.40;5.70;;;6.60;99.90;;;;;;5001144;28;20042;-80
2024/02/25 09:37:07;;;;;;;10.35;6.10;;;7.60;99.90;;;;;;5037476;28;20476;-79
2024/02/25 09:39:32;;;;;;;8.77;6.25;;;6.60;99.90;;;;;;5036081;28;20036;-80
2024/02/25 09:41:58;;;;;;;8.85;6.32;;;6.60;99.90;;;;;;5016941;28;20041;-80
2024/02/25 09:44:27;;;;;;;12.32;6.32;;;6.50;99.90;;;;;;5034317;28;20110;-80
2024/02/25 09:46:55;;;;;;;10.10;6.82;;;6.50;99.90;;;;;;5035109;28;20103;-79
2024/02/25 09:49:25;;;;;;;9.85;6.78;;;6.50;99.90;;;;;;5036407;28;20044;-79
2024/02/25 09:51:51;;;;;;;9.77;6.47;;;6.50;99.90;;;;;;5037710;28;20033;-79
2024/02/25 09:54:20;;;;;;;10.23;7.00;;;6.50;99.90;;;;;;5034067;28;20025;-80
2024/02/25 09:56:49;;;;;;;12.68;6.78;;;6.50;99.90;;;;;;5030082;28;20030;-80
2024/02/25 09:59:21;;;;;;;10.48;7.60;;;6.50;99.90;;;;;;5034683;28;20388;-79
2024/02/25 10:01:49;;;;;;;12.00;7.15;;;6.50;99.90;;;;;;5032997;28;20048;-79
2024/02/25 10:04:15;;;;;;;10.68;7.18;;;6.50;99.90;;;;;;5023720;28;20487;-79
2024/02/25 10:06:42;;;;;;;10.60;7.60;;;6.60;99.90;;;;;;5035071;28;20056;-80
2024/02/25 10:09:14;;;;;;;11.73;7.97;;;6.60;99.90;;;;;;5040021;28;20057;-80
2024/02/25 10:11:43;;;;;;;12.05;7.63;;;6.60;99.90;;;;;;5037231;28;20551;-79
2024/02/25 10:14:09;;;;;;;11.55;7.65;;;6.70;99.90;;;;;;5040187;28;20145;-76
2024/02/25 10:16:35;;;;;;;12.43;8.13;;;6.60;99.90;;;;;;5033676;28;20373;-75
2024/02/25 10:19:01;;;;;;;11.93;7.82;;;6.60;99.90;;;;;;5034998;28;20083;-77
2024/02/25 10:21:26;;;;;;;14.73;8.57;;;6.60;99.90;;;;;;5036177;28;20099;-78
2024/02/25 10:23:54;;;;;;;13.63;8.02;;;6.60;99.90;;;;;;5035922;28;20433;-79
2024/02/25 10:26:23;;;;;;;12.43;7.95;;;6.60;99.90;;;;;;5037313;28;20049;-79
2024/02/25 10:29:01;;;;;;;12.88;8.10;;;6.60;99.90;;;;;;5037918;28;20308;-80
2024/02/25 10:31:26;;;;;;;10.60;7.40;;;6.60;99.90;;;;;;5038685;28;20120;-80
2024/02/25 10:33:56;;;;;;;13.77;7.63;;;6.60;99.90;;;;;;5041295;28;20039;-81
2024/02/25 10:36:25;;;;;;;11.40;7.82;;;6.70;99.90;;;;;;5042547;28;20383;-80
2024/02/25 10:38:56;;;;;;;10.90;7.60;;;6.70;99.90;;;;;;5040142;28;20034;-79
2024/02/25 10:41:22;;;;;;;11.40;7.85;;;6.70;99.90;;;;;;5035953;28;20515;-79
2024/02/25 10:43:59;;;;;;;11.02;8.10;;;6.70;99.90;;;;;;5045039;28;20041;-81
2024/02/25 10:46:41;;;;;;;12.60;8.27;;;6.80;99.90;;;;;;5051772;28;20395;-81
2024/02/25 10:49:09;;;;;;;13.45;7.72;;;6.90;99.90;;;;;;5032157;28;20034;-81
2024/02/25 10:51:35;;;;;;;10.98;7.88;;;7.00;99.90;;;;;;5043998;28;20065;-80
2024/02/25 10:54:01;;;;;;;13.80;8.15;;;7.00;99.90;;;;;;5046379;28;20033;-81
2024/02/25 10:56:29;;;;;;;10.98;7.55;;;7.10;99.90;;;;;;5038460;28;20043;-81
2024/02/25 10:58:56;;;;;;;13.27;8.20;;;7.10;99.90;;;;;;5042796;28;20036;-81
2024/02/25 11:01:24;;;;;;;12.15;8.15;;;7.20;99.90;;;;;;5032853;28;20028;-81
2024/02/25 11:03:50;;;;;;;11.63;8.10;;;7.20;99.90;;;;;;5019342;28;20668;-81
2024/02/25 11:06:39;;;;;;;13.45;8.40;;;7.30;99.90;;;;;;5025604;28;20037;-81
2024/02/25 11:09:10;;;;;;;12.02;8.23;;;7.30;99.90;;;;;;5026245;28;20037;-80
2024/02/25 11:11:36;;;;;;;12.68;8.57;;;7.30;99.90;;;;;;5023766;28;20036;-81
2024/02/25 11:14:02;;;;;;;10.70;7.65;;;7.30;99.90;;;;;;5037144;28;20515;-80
2024/02/25 11:16:36;;;;;;;13.88;8.18;;;7.30;99.90;;;;;;5041181;28;20048;-81
2024/02/25 11:19:02;;;;;;;11.82;7.88;;;7.50;99.90;;;;;;5034968;28;20422;-80
2024/02/25 11:21:33;;;;;;;12.48;7.85;;;7.40;99.90;;;;;;5037045;28;20033;-80
2024/02/25 11:23:59;;;;;;;13.27;8.35;;;7.70;99.90;;;;;;5025805;28;20088;-81
2024/02/25 11:26:33;;;;;;;12.00;8.00;;;7.40;99.90;;;;;;5036000;28;20033;-81
2024/02/25 11:29:15;;;;;;;12.98;7.88;;;7.50;99.90;;;;;;5039635;28;20041;-81
2024/02/25 11:31:50;;;;;;;12.73;8.68;;;7.50;99.90;;;;;;5012022;28;20048;-81
2024/02/25 11:34:21;;;;;;;12.57;7.85;;;7.60;99.90;;;;;;5009123;28;20099;-80
2024/02/25 11:36:55;;;;;;;10.57;8.05;;;7.60;99.90;;;;;;5015649;28;20038;-82
2024/02/25 11:39:25;;;;;;;11.57;8.05;;;7.80;99.90;;;;;;5004938;28;20050;-80
2024/02/25 11:41:52;;;;;;;11.32;8.05;;;7.70;99.90;;;;;;5008719;28;20053;-79
2024/02/25 11:44:18;;;;;;;10.80;7.75;;;7.70;99.90;;;;;;5009396;28;20044;-80
2024/02/25 11:46:44;;;;;;;11.65;8.35;;;7.80;99.90;;;;;;5002574;28;20035;-80
2024/02/25 11:49:12;;;;;;;10.57;7.78;;;7.80;99.90;;;;;;5006207;28;20591;-79
2024/02/25 11:51:42;;;;;;;10.98;7.47;;;7.80;99.90;;;;;;5020911;28;20040;-81
2024/02/25 11:54:08;;;;;;;11.18;7.18;;;7.80;99.90;;;;;;5023105;28;20033;-81
2024/02/25 11:56:34;;;;;;;9.85;7.13;;;7.80;99.90;;;;;;5012635;28;20045;-79
2024/02/25 11:59:00;;;;;;;12.00;7.50;;;7.70;99.90;;;;;;5014938;28;20583;-79
2024/02/25 12:01:26;;;;;;;11.65;7.80;;;7.80;99.90;;;;;;4997190;28;20492;-81
2024/02/25 12:03:52;;;;;;;12.25;8.32;;;7.70;99.90;;;;;;4991739;28;20046;-81
2024/02/25 12:06:17;;;;;;;12.38;7.70;;;7.70;99.90;;;;;;4993948;28;20600;-81
2024/02/25 12:08:47;;;;;;;10.77;7.80;;;7.70;99.90;;;;;;5009483;28;20404;-80
2024/02/25 12:11:14;;;;;;;12.02;7.75;;;7.70;99.90;;;;;;5022281;28;20042;-82
2024/02/25 12:13:42;;;;;;;12.38;7.93;;;7.70;99.90;;;;;;5022089;28;20046;-79
2024/02/25 12:16:08;;;;;;;12.25;7.95;;;7.70;99.90;;;;;;5000501;28;20500;-79
2024/02/25 12:18:35;;;;;;;10.90;8.27;;;7.70;99.90;;;;;;5031142;28;20038;-80
2024/02/25 12:21:02;;;;;;;12.00;8.25;;;7.70;99.90;;;;;;4987770;28;20034;-81
2024/02/25 12:23:30;;;;;;;12.10;8.30;;;7.60;99.90;;;;;;5039086;28;20049;-81
2024/02/25 12:26:03;;;;;;;12.57;8.25;;;7.60;99.90;;;;;;4994941;28;20532;-79
2024/02/25 12:28:36;;;;;;;11.15;8.27;;;7.60;99.90;;;;;;4982941;28;20120;-82
2024/02/25 12:31:05;;;;;;;;;;;7.60;99.90;;;;;;4989349;28;20045;-78
2024/02/25 12:33:31;;;;;;;11.40;8.23;;;7.60;99.90;;;;;;5030857;28;19971;-81
2024/02/25 12:35:57;;;;;;;11.30;8.25;;;7.80;99.90;;;;;;5007522;28;20042;-79
2024/02/25 12:38:22;;;;;;;11.07;7.50;;;8.30;99.90;;;;;;5004730;28;20040;-78
2024/02/25 12:40:51;;;;;;;11.32;8.48;;;7.50;99.90;;;;;;4986357;28;20057;-81
2024/02/25 12:43:18;;;;;;;11.38;7.60;;;7.50;99.90;;;;;;5011041;28;20034;-78
2024/02/25 12:45:44;;;;;;;10.23;7.38;;;7.50;99.90;;;;;;5009883;28;20069;-79
2024/02/25 12:48:09;;;;;;;9.07;6.90;;;7.50;99.90;;;;;;5033284;28;20050;-80
2024/02/25 12:50:35;;;;;;;9.43;6.90;;;7.50;99.90;;;;;;5001568;28;20455;-81
2024/02/25 12:53:02;;;;;;;11.10;7.47;;;7.50;99.90;;;;;;4984063;28;20033;-80